Terminal Aerodrome Forecast
Issued by NWS Cleveland, OH

Home | Current Version | Previous Version | Graphics & Text | Print | Product List | Glossary On
Versions: 1 2 3 4 5 6 7 8 9 10 11 12 13 14 15 16 17 18 19 20 21 22 23
452
FTUS41 KCLE 200255 AAA
TAFTOL
TAF AMD
KTOL 200255Z 2003/2024 13003KT P6SM SCT025 BKN150
     FM201400 19006KT P6SM VCSH OVC035
     FM201900 19006KT 4SM SHRA OVC015
     FM202100 05006KT 3SM SHRA BR OVC008=

USA.gov is the U.S. government's official web portal to all federal, state and local government web resources and services.